Time;durP1;ratioP1;P1;durP2;ratioP2;P2;SDS_P1;SDS_P2;PMS_P1;PMS_P2;Temp;Humidity;BMP_temperature;BMP_pressure;BME280_temperature;BME280_humidity;BME280_pressure;Samples;Min_cycle;Max_cycle;Signal;HPM_P1;HPM_P2
2022/04/15 00:00:10;;;;;;;5.40;4.03;;;17.50;62.40;;;-142.21;98.60;112049.66;5054043;28;20602;-78
2022/04/15 00:02:37;;;;;;;5.53;4.00;;;17.40;62.80;;;-142.21;98.50;112049.66;5054112;28;20440;-79
2022/04/15 00:05:29;;;;;;;5.10;4.60;;;17.30;62.60;;;-142.21;98.40;112049.66;5053995;28;20444;-79
2022/04/15 00:07:55;;;;;;;5.57;4.40;;;17.30;62.90;;;-142.21;98.58;112049.66;5053555;28;20490;-78
2022/04/15 00:10:24;;;;;;;5.83;4.40;;;17.20;62.60;;;-142.21;98.84;112049.66;5054061;28;20502;-79
2022/04/15 00:12:54;;;;;;;6.03;3.93;;;17.20;62.80;;;-142.21;99.15;112049.66;5053708;28;20852;-80
2022/04/15 00:15:22;;;;;;;6.50;4.47;;;17.20;62.90;;;-142.21;98.38;112049.66;5053443;28;20444;-79
2022/04/15 00:17:49;;;;;;;5.30;4.67;;;17.20;62.70;;;-142.21;98.36;112049.66;5053767;28;20488;-79
2022/04/15 00:20:16;;;;;;;6.37;4.53;;;17.10;62.50;;;-142.21;98.42;112049.66;5053619;28;20458;-79
2022/04/15 00:22:44;;;;;;;6.13;5.07;;;17.10;63.20;;;-142.21;98.92;112049.66;5054238;28;20448;-79
2022/04/15 00:25:12;;;;;;;6.43;4.50;;;17.10;63.80;;;-142.21;98.62;112049.66;5053692;28;20498;-78
2022/04/15 00:27:41;;;;;;;7.97;4.73;;;17.00;63.50;;;-142.21;98.72;112049.66;5053962;28;20853;-79
2022/04/15 00:30:11;;;;;;;7.60;5.00;;;16.90;63.90;;;-142.21;98.95;112049.66;5053603;28;20956;-80
2022/04/15 00:32:39;;;;;;;6.63;5.03;;;16.90;63.70;;;-142.21;99.56;112049.66;5053667;28;20448;-79
2022/04/15 00:35:11;;;;;;;6.70;4.80;;;16.90;63.70;;;-142.21;99.08;112049.66;5053941;28;20539;-79
2022/04/15 00:37:39;;;;;;;5.17;4.60;;;16.90;63.60;;;-142.21;99.14;112049.66;5053887;28;20549;-79
2022/04/15 00:40:10;;;;;;;4.97;4.47;;;16.90;63.70;;;-142.21;99.17;112049.66;5053841;28;20476;-80
2022/04/15 00:42:37;;;;;;;5.90;3.90;;;16.80;63.70;;;-142.21;98.71;112049.66;5052194;28;20837;-78
2022/04/15 00:45:09;;;;;;;6.10;4.07;;;16.80;64.60;;;-142.21;98.74;112049.66;5035028;28;20453;-78
2022/04/15 00:47:48;;;;;;;4.67;4.00;;;16.60;64.40;;;-142.21;98.41;112049.66;5032994;28;20429;-79
2022/04/15 00:50:17;;;;;;;4.63;3.67;;;16.50;64.90;;;-142.21;99.06;112049.66;5039455;28;20460;-79
2022/04/15 00:52:47;;;;;;;4.30;3.90;;;16.50;64.30;;;-142.21;99.42;112049.66;5052698;28;20932;-79
2022/04/15 00:55:19;;;;;;;4.47;4.07;;;16.50;64.30;;;-142.21;99.59;112049.66;5053787;28;20440;-80
2022/04/15 00:57:50;;;;;;;4.23;3.83;;;16.50;64.50;;;-142.21;99.42;112049.66;5035280;28;20505;-80
2022/04/15 01:00:21;;;;;;;4.87;4.10;;;16.50;64.30;;;-142.21;99.64;112049.66;5041374;28;20503;-79
2022/04/15 01:02:49;;;;;;;6.13;4.50;;;16.50;64.80;;;-142.21;100.00;112049.66;5052694;28;20429;-80
2022/04/15 01:05:18;;;;;;;5.40;4.40;;;16.40;64.60;;;-142.21;99.64;112049.66;5053339;28;20498;-80
2022/04/15 01:07:50;;;;;;;5.87;4.07;;;16.40;64.10;;;-142.21;99.52;112049.66;5052821;28;20444;-79
2022/04/15 01:10:21;;;;;;;6.53;4.00;;;16.40;64.60;;;-142.21;99.94;112049.66;5052846;28;20471;-79
2022/04/15 01:12:51;;;;;;;4.83;3.93;;;16.40;64.70;;;-142.21;99.76;112049.66;5052336;28;20487;-78
2022/04/15 01:15:22;;;;;;;4.97;4.43;;;16.30;64.80;;;-142.21;99.69;112049.66;5053097;28;20436;-79
2022/04/15 01:17:49;;;;;;;4.83;4.03;;;16.30;64.40;;;-142.21;99.30;112049.66;5052437;28;20511;-80
2022/04/15 01:20:17;;;;;;;4.77;4.07;;;16.30;64.10;;;-142.21;99.01;112049.66;5053060;28;20801;-79
2022/04/15 01:22:48;;;;;;;4.07;3.67;;;16.30;64.50;;;-142.21;99.39;112049.66;5052630;28;20582;-79
2022/04/15 01:25:18;;;;;;;7.20;3.80;;;16.20;64.50;;;-142.21;99.27;112049.66;5052875;28;20460;-80
2022/04/15 01:27:47;;;;;;;4.07;3.67;;;16.20;64.70;;;-142.21;99.34;112049.66;5053268;28;20478;-80
2022/04/15 01:30:18;;;;;;;4.47;3.80;;;16.20;64.50;;;-142.21;99.71;112049.66;5032200;28;20496;-80
2022/04/15 01:32:46;;;;;;;4.03;3.53;;;16.10;64.90;;;-142.21;99.98;112049.66;5033065;28;20436;-80
2022/04/15 01:35:17;;;;;;;5.37;4.20;;;16.10;64.10;;;-142.21;99.73;112049.66;5032273;28;20503;-80
2022/04/15 01:37:46;;;;;;;5.13;3.90;;;16.10;64.90;;;-142.21;100.00;112049.66;5039289;28;20480;-79
2022/04/15 01:40:17;;;;;;;4.63;4.00;;;16.00;64.90;;;-142.21;99.68;112049.66;5052116;28;20498;-79
2022/04/15 01:42:47;;;;;;;5.17;3.60;;;16.00;64.50;;;-142.21;99.47;112049.66;5052663;28;20839;-79
2022/04/15 01:45:15;;;;;;;4.67;3.30;;;16.00;64.30;;;-142.21;99.20;112049.66;5052221;28;20431;-80
2022/04/15 01:47:45;;;;;;;4.13;3.77;;;16.00;63.90;;;-142.21;98.60;112049.66;5052285;28;20531;-79
2022/04/15 01:50:12;;;;;;;6.47;3.70;;;16.00;64.00;;;-142.21;98.52;112049.66;5052125;28;20477;-79
2022/04/15 01:52:40;;;;;;;4.10;3.70;;;15.90;63.70;;;-142.21;98.36;112049.66;5052612;28;20460;-79
2022/04/15 01:55:08;;;;;;;6.67;3.90;;;15.90;63.90;;;-142.21;98.47;112049.66;5052253;28;20445;-80
2022/04/15 01:57:36;;;;;;;4.77;4.00;;;15.80;63.70;;;-142.21;99.37;112049.66;5051431;28;20526;-80
2022/04/15 02:00:06;;;;;;;6.57;5.00;;;15.80;64.10;;;-142.21;99.19;112049.66;5052119;28;20457;-80
2022/04/15 02:02:33;;;;;;;5.27;4.77;;;15.80;64.30;;;-142.21;99.22;112049.66;5062065;28;20806;-80
2022/04/15 02:05:01;;;;;;;6.20;4.93;;;15.70;64.50;;;-142.21;99.48;112049.66;5072573;28;20850;-80
2022/04/15 02:07:28;;;;;;;5.93;5.00;;;15.70;64.50;;;-142.21;99.80;112049.66;5071504;28;20811;-81
2022/04/15 02:09:55;;;;;;;6.60;5.27;;;15.70;64.50;;;-142.21;100.00;112049.66;5072434;28;20585;-79
2022/04/15 02:12:23;;;;;;;6.17;5.50;;;15.60;64.70;;;-142.21;100.00;112049.66;5056178;28;20484;-79
2022/04/15 02:14:51;;;;;;;6.27;5.67;;;15.60;65.20;;;-142.21;100.00;112049.66;5052066;28;20483;-80
2022/04/15 02:17:19;;;;;;;6.97;5.93;;;15.60;65.20;;;-142.21;100.00;112049.66;5052133;28;20455;-80
2022/04/15 02:19:46;;;;;;;5.77;5.07;;;15.60;65.20;;;-142.21;100.00;112049.66;5051624;28;20464;-80
2022/04/15 02:22:13;;;;;;;5.50;4.93;;;15.60;64.60;;;-142.21;100.00;112049.66;5051989;28;20456;-80
2022/04/15 02:24:40;;;;;;;6.90;5.97;;;15.60;65.10;;;-142.21;100.00;112049.66;5051697;28;20486;-80
2022/04/15 02:27:07;;;;;;;6.43;5.40;;;15.60;65.20;;;-142.21;100.00;112049.66;5051990;28;20515;-80
2022/04/15 02:29:35;;;;;;;7.37;5.60;;;15.50;65.10;;;-142.21;99.95;112049.66;5051850;28;20527;-80
2022/04/15 02:32:05;;;;;;;5.63;5.13;;;15.50;64.90;;;-142.21;99.79;112049.66;5052064;28;20552;-80
2022/04/15 02:34:32;;;;;;;5.17;4.53;;;15.50;64.90;;;-142.21;99.52;112049.66;5052165;28;20532;-80
2022/04/15 02:37:00;;;;;;;7.57;5.50;;;15.40;64.90;;;-142.21;99.73;112049.66;5054873;28;20509;-80
2022/04/15 02:39:27;;;;;;;5.00;4.50;;;15.40;65.10;;;-142.21;100.00;112049.66;5055785;28;20580;-79
2022/04/15 02:41:56;;;;;;;4.30;3.90;;;15.40;65.00;;;-142.21;99.37;112049.66;5054982;28;20541;-79
2022/04/15 02:44:24;;;;;;;5.50;4.73;;;15.40;64.80;;;-142.21;100.00;112049.66;5055976;28;20456;-80
2022/04/15 02:46:52;;;;;;;5.83;4.70;;;15.40;65.10;;;-142.21;100.00;112049.66;5054874;28;20456;-80
2022/04/15 02:49:21;;;;;;;6.23;4.70;;;15.40;64.90;;;-142.21;100.00;112049.66;5055592;28;20463;-80
2022/04/15 02:51:49;;;;;;;5.40;4.60;;;15.30;65.60;;;-142.21;99.76;112049.66;5055572;28;20491;-80
2022/04/15 02:54:16;;;;;;;5.10;4.57;;;15.30;65.10;;;-142.21;99.95;112049.66;5055525;28;20873;-80
2022/04/15 02:56:43;;;;;;;6.70;4.40;;;15.30;65.20;;;-142.21;99.88;112049.66;5055612;28;20536;-80
2022/04/15 02:59:16;;;;;;;5.63;4.37;;;15.20;64.80;;;-142.21;100.00;112049.66;5061581;28;20497;-79
2022/04/15 03:01:45;;;;;;;5.03;4.13;;;15.20;65.40;;;-142.21;99.58;112049.66;5070837;28;20472;-79
2022/04/15 03:04:15;;;;;;;5.20;4.27;;;15.20;65.10;;;-142.21;100.00;112049.66;5073925;28;20480;-79
2022/04/15 03:06:44;;;;;;;4.87;4.20;;;15.10;64.70;;;-142.21;99.91;112049.66;5046636;28;20444;-80
2022/04/15 03:09:11;;;;;;;8.10;4.13;;;15.10;64.70;;;-142.21;100.00;112049.66;5034964;28;20492;-80
2022/04/15 03:11:38;;;;;;;5.77;4.00;;;15.10;64.50;;;-142.21;100.00;112049.66;5035223;28;20441;-79
2022/04/15 03:14:06;;;;;;;5.17;3.93;;;15.10;64.50;;;-142.21;99.98;112049.66;5035090;28;20544;-80
2022/04/15 03:16:35;;;;;;;5.83;4.30;;;15.10;64.40;;;-142.21;100.00;112049.66;5035339;28;20437;-80
2022/04/15 03:19:02;;;;;;;8.17;4.33;;;15.10;64.50;;;-142.21;99.87;112049.66;5037640;28;20827;-80
2022/04/15 03:21:30;;;;;;;5.53;4.33;;;15.10;64.30;;;-142.21;100.00;112049.66;5054311;28;20944;-80
2022/04/15 03:23:59;;;;;;;3.87;3.50;;;15.00;64.70;;;-142.21;100.00;112049.66;5075049;28;20447;-79
2022/04/15 03:26:26;;;;;;;4.30;3.87;;;15.00;65.10;;;-142.21;100.00;112049.66;5069955;28;20447;-80
2022/04/15 03:28:53;;;;;;;8.37;3.70;;;14.90;65.20;;;-142.21;100.00;112049.66;5054818;28;20495;-80
2022/04/15 03:31:20;;;;;;;4.13;3.73;;;14.80;65.40;;;-142.21;100.00;112049.66;5054629;28;20541;-80
2022/04/15 03:33:48;;;;;;;5.47;4.67;;;14.80;65.80;;;-142.21;100.00;112049.66;5054961;28;20794;-80
2022/04/15 03:36:15;;;;;;;4.00;3.57;;;14.90;66.30;;;-142.21;100.00;112049.66;5055183;28;20854;-80
2022/04/15 03:38:43;;;;;;;4.63;4.23;;;14.90;65.60;;;-142.21;100.00;112049.66;5054607;28;20585;-80
2022/04/15 03:41:11;;;;;;;5.40;4.17;;;14.80;66.20;;;-142.21;100.00;112049.66;5054685;28;20491;-80
2022/04/15 03:43:40;;;;;;;4.77;4.00;;;14.90;65.50;;;-142.21;100.00;112049.66;5053988;28;20972;-79
2022/04/15 03:46:08;;;;;;;4.87;4.47;;;14.80;65.90;;;-142.21;100.00;112049.66;5054359;28;20448;-80
2022/04/15 03:48:35;;;;;;;4.53;4.10;;;14.80;65.50;;;-142.21;100.00;112049.66;5054382;28;20498;-80
2022/04/15 03:51:02;;;;;;;4.50;4.10;;;14.80;65.40;;;-142.21;100.00;112049.66;5054792;28;20502;-80
2022/04/15 03:53:30;;;;;;;4.00;3.60;;;14.80;65.50;;;-142.21;100.00;112049.66;5053699;28;20502;-79
2022/04/15 03:55:57;;;;;;;4.50;4.10;;;14.80;65.40;;;-142.21;100.00;112049.66;5046388;28;20461;-81
2022/04/15 03:58:26;;;;;;;4.47;4.07;;;14.70;65.30;;;-142.21;100.00;112049.66;5034254;28;20499;-80
2022/04/15 04:00:54;;;;;;;4.50;4.10;;;14.70;65.10;;;-142.21;100.00;112049.66;5034403;28;20556;-79
2022/04/15 04:03:21;;;;;;;4.80;4.40;;;14.60;65.40;;;-142.21;100.00;112049.66;5049498;28;20444;-80
2022/04/15 04:05:48;;;;;;;5.20;3.97;;;14.60;65.80;;;-142.21;100.00;112049.66;5054110;28;20498;-80
2022/04/15 04:08:16;;;;;;;4.63;4.23;;;14.60;65.40;;;-142.21;100.00;112049.66;5054372;28;20444;-78
2022/04/15 04:10:43;;;;;;;4.47;4.07;;;14.60;66.20;;;-142.21;100.00;112049.66;5053548;28;20472;-79
2022/04/15 04:13:11;;;;;;;5.53;4.80;;;14.50;65.60;;;-142.21;100.00;112049.66;5053919;28;20907;-78
2022/04/15 04:15:39;;;;;;;4.90;4.40;;;14.50;65.20;;;-142.21;100.00;112049.66;5034505;28;20476;-79
2022/04/15 04:18:06;;;;;;;5.07;4.57;;;14.50;65.80;;;-142.21;100.00;112049.66;5033963;28;20521;-80
2022/04/15 04:20:34;;;;;;;5.30;4.80;;;14.50;65.40;;;-142.21;100.00;112049.66;5034324;28;20528;-79
2022/04/15 04:23:01;;;;;;;4.67;4.17;;;14.60;65.40;;;-142.21;100.00;112049.66;5033576;28;20511;-79
2022/04/15 04:25:28;;;;;;;5.50;4.83;;;14.50;65.70;;;-142.21;100.00;112049.66;5062010;28;20455;-78
2022/04/15 04:27:55;;;;;;;5.47;4.40;;;14.50;65.90;;;-142.21;100.00;112049.66;5073260;28;20448;-80
2022/04/15 04:30:23;;;;;;;7.57;4.20;;;14.50;65.60;;;-142.21;100.00;112049.66;5074074;28;20451;-81
2022/04/15 04:32:52;;;;;;;4.40;3.87;;;14.40;65.40;;;-142.21;100.00;112049.66;5073445;28;20448;-77
2022/04/15 04:35:21;;;;;;;4.93;3.93;;;14.50;65.40;;;-142.21;100.00;112049.66;5061222;28;20456;-79
2022/04/15 04:37:49;;;;;;;6.03;4.30;;;14.50;66.00;;;-142.21;100.00;112049.66;5053377;28;20964;-79
2022/04/15 04:40:17;;;;;;;4.43;4.10;;;14.40;65.50;;;-142.21;100.00;112049.66;5052956;28;20502;-76
2022/04/15 04:42:47;;;;;;;5.57;4.60;;;14.40;65.20;;;-142.21;100.00;112049.66;5053800;28;20455;-77
2022/04/15 04:45:14;;;;;;;4.70;4.20;;;14.40;65.70;;;-142.21;99.69;112049.66;5064716;28;20482;-80
2022/04/15 04:47:44;;;;;;;4.13;3.73;;;14.40;65.30;;;-142.21;99.73;112049.66;5073676;28;20531;-80
2022/04/15 04:50:13;;;;;;;5.13;4.60;;;14.40;65.50;;;-142.21;99.83;112049.66;5053478;28;20532;-80
2022/04/15 04:52:41;;;;;;;5.47;3.80;;;14.30;65.60;;;-142.21;100.00;112049.66;5053353;28;20452;-80
2022/04/15 04:55:09;;;;;;;5.37;4.50;;;14.30;66.40;;;-142.21;99.75;112049.66;5052819;28;20440;-80
2022/04/15 04:57:38;;;;;;;4.27;3.87;;;14.30;65.40;;;-142.21;100.00;112049.66;5069153;28;20447;-80
2022/04/15 05:00:08;;;;;;;4.97;4.47;;;14.30;65.60;;;-142.21;100.00;112049.66;5060675;28;20495;-80
2022/04/15 05:02:36;;;;;;;4.97;3.87;;;14.30;66.40;;;-142.21;100.00;112049.66;5072265;28;20451;-80
2022/04/15 05:05:05;;;;;;;6.40;5.30;;;14.30;65.90;;;-142.21;99.50;112049.66;5073107;28;20500;-79
2022/04/15 05:07:35;;;;;;;5.27;4.10;;;14.30;65.60;;;-142.21;100.00;112049.66;5072502;28;20475;-79
2022/04/15 05:10:02;;;;;;;4.67;3.93;;;14.30;65.70;;;-142.21;100.00;112049.66;5073249;28;20505;-80
2022/04/15 05:12:29;;;;;;;4.80;4.30;;;14.40;65.40;;;-142.21;100.00;112049.66;5061940;28;20560;-81
2022/04/15 05:14:56;;;;;;;5.07;4.07;;;14.40;65.80;;;-142.21;100.00;112049.66;5058877;28;20513;-80
2022/04/15 05:17:23;;;;;;;5.27;4.67;;;14.40;65.80;;;-142.21;100.00;112049.66;5052288;28;20953;-79
2022/04/15 05:19:51;;;;;;;4.30;3.90;;;14.50;65.90;;;-142.21;100.00;112049.66;5053190;28;20523;-80
2022/04/15 05:22:18;;;;;;;4.60;4.20;;;14.60;66.10;;;-142.21;100.00;112049.66;5064720;28;20577;-80
2022/04/15 05:24:47;;;;;;;4.17;3.87;;;14.70;65.90;;;-142.21;100.00;112049.66;5072549;28;20505;-81
2022/04/15 05:27:14;;;;;;;4.33;3.93;;;14.80;65.70;;;-142.21;100.00;112049.66;5037269;28;20445;-79
2022/04/15 05:29:41;;;;;;;4.10;3.70;;;14.80;65.60;;;-142.21;100.00;112049.66;5052461;28;20468;-80
2022/04/15 05:32:08;;;;;;;4.23;3.60;;;14.80;65.70;;;-142.21;100.00;112049.66;5052550;28;20973;-78
2022/04/15 05:34:39;;;;;;;4.20;3.80;;;14.80;66.60;;;-142.21;100.00;112049.66;5031802;28;20507;-81
2022/04/15 05:37:06;;;;;;;5.77;4.50;;;14.90;66.40;;;-142.21;100.00;112049.66;5070100;28;20471;-81
2022/04/15 05:39:33;;;;;;;3.77;3.47;;;14.90;66.70;;;-142.21;100.00;112049.66;5071872;28;20574;-80
2022/04/15 05:42:02;;;;;;;5.33;4.77;;;15.00;66.70;;;-142.21;100.00;112049.66;5072930;28;20860;-81
2022/04/15 05:44:29;;;;;;;5.10;4.60;;;15.00;67.10;;;-142.21;100.00;112049.66;5061650;28;20514;-80
2022/04/15 05:46:56;;;;;;;5.03;4.63;;;15.10;67.70;;;-142.21;100.00;112049.66;5054162;28;20975;-78
2022/04/15 05:49:25;;;;;;;4.40;4.00;;;15.10;67.60;;;-142.21;100.00;112049.66;5067985;28;20440;-80
2022/04/15 05:51:52;;;;;;;6.03;5.43;;;15.20;67.80;;;-142.21;100.00;112049.66;5051678;28;20448;-80
2022/04/15 05:54:19;;;;;;;5.43;4.90;;;15.30;68.20;;;-142.21;100.00;112049.66;5052499;28;20521;-80
2022/04/15 05:56:47;;;;;;;6.10;5.50;;;15.40;68.00;;;-142.21;100.00;112049.66;5052066;28;20498;-81
2022/04/15 05:59:15;;;;;;;9.00;6.10;;;15.40;68.60;;;-142.21;100.00;112049.66;5052378;28;20487;-80
2022/04/15 06:01:43;;;;;;;6.53;5.20;;;15.40;68.80;;;-142.21;100.00;112049.66;5052179;28;20521;-79
2022/04/15 06:04:10;;;;;;;6.70;5.90;;;15.50;68.80;;;-142.21;100.00;112049.66;5067704;28;20444;-80
2022/04/15 06:06:37;;;;;;;8.00;6.07;;;15.60;68.80;;;-142.21;100.00;112049.66;5072274;28;20436;-80
2022/04/15 06:09:04;;;;;;;8.53;5.90;;;15.70;68.90;;;-142.21;100.00;112049.66;5071547;28;20859;-78
2022/04/15 06:11:31;;;;;;;8.67;6.37;;;15.80;68.50;;;-142.21;100.00;112049.66;5072241;28;20455;-80
2022/04/15 06:14:01;;;;;;;6.40;5.80;;;15.90;68.10;;;-142.21;100.00;112049.66;5071857;28;20466;-81
2022/04/15 06:16:32;;;;;;;6.77;5.27;;;16.00;68.20;;;-142.21;100.00;112049.66;5072312;28;20447;-80
2022/04/15 06:18:59;;;;;;;6.30;5.67;;;16.10;68.60;;;-142.21;100.00;112049.66;5071469;28;20934;-79
2022/04/15 06:21:26;;;;;;;6.97;6.00;;;16.20;68.50;;;-142.21;100.00;112049.66;5072318;28;20517;-81
2022/04/15 06:23:54;;;;;;;7.73;6.53;;;16.30;68.50;;;-142.21;100.00;112049.66;5056855;28;20514;-81
2022/04/15 06:26:21;;;;;;;10.33;6.40;;;16.40;68.70;;;-142.21;100.00;112049.66;5051797;28;20452;-80
2022/04/15 06:28:48;;;;;;;8.13;6.00;;;16.60;68.80;;;-142.21;100.00;112049.66;5052094;28;20514;-80
2022/04/15 06:31:16;;;;;;;8.13;6.10;;;16.70;67.70;;;-142.21;100.00;112049.66;5051392;28;20506;-79
2022/04/15 06:33:45;;;;;;;7.70;6.00;;;16.80;67.70;;;-142.21;100.00;112049.66;5065315;28;20509;-80
2022/04/15 06:36:12;;;;;;;6.07;5.47;;;16.80;67.70;;;-142.21;100.00;112049.66;5071704;28;20489;-80
2022/04/15 06:38:39;;;;;;;7.00;5.93;;;17.00;66.90;;;-142.21;100.00;112049.66;5072137;28;20538;-80
2022/04/15 06:41:06;;;;;;;7.50;6.23;;;17.10;66.80;;;-142.21;100.00;112049.66;5071857;28;20932;-80
2022/04/15 06:43:33;;;;;;;7.43;6.67;;;17.20;66.80;;;-142.21;100.00;112049.66;5054691;28;20444;-76
2022/04/15 06:46:02;;;;;;;8.77;7.03;;;17.20;66.60;;;-142.21;100.00;112049.66;5052172;28;20523;-81
2022/04/15 06:48:29;;;;;;;9.20;7.30;;;17.40;66.20;;;-142.21;100.00;112049.66;5053180;28;20463;-77
2022/04/15 06:50:58;;;;;;;9.57;7.50;;;17.40;67.20;;;-142.21;100.00;112049.66;5072138;28;20439;-78
2022/04/15 06:53:25;;;;;;;8.77;7.87;;;17.50;67.00;;;-142.21;100.00;112049.66;5071040;28;20487;-79
2022/04/15 06:55:53;;;;;;;9.43;7.90;;;17.60;67.20;;;-142.21;100.00;112049.66;5071635;28;20508;-78
2022/04/15 06:58:21;;;;;;;9.90;8.07;;;17.70;66.10;;;-142.21;100.00;112049.66;5071921;28;20466;-81
2022/04/15 07:00:49;;;;;;;12.13;8.33;;;17.90;65.90;;;-142.21;100.00;112049.66;5051725;28;20480;-79
2022/04/15 07:03:17;;;;;;;9.57;7.93;;;18.00;65.70;;;-142.21;100.00;112049.66;5051554;28;20448;-80
2022/04/15 07:05:44;;;;;;;11.87;8.80;;;18.10;65.40;;;-142.21;100.00;112049.66;5050980;28;20494;-79
2022/04/15 07:08:13;;;;;;;10.03;8.60;;;18.20;64.60;;;-142.21;100.00;112049.66;5051613;28;20952;-80
2022/04/15 07:10:41;;;;;;;12.67;9.10;;;18.30;65.60;;;-142.21;100.00;112049.66;5050909;28;20991;-79
2022/04/15 07:13:08;;;;;;;15.47;12.10;;;18.50;65.70;;;-142.21;100.00;112049.66;5051197;28;20484;-81
2022/04/15 07:15:35;;;;;;;14.70;12.10;;;18.60;64.10;;;-142.21;100.00;112049.66;5051501;28;20451;-79
2022/04/15 07:18:04;;;;;;;13.43;12.03;;;18.70;65.00;;;-142.21;100.00;112049.66;5051126;28;20476;-79
2022/04/15 07:20:31;;;;;;;13.77;12.33;;;18.80;64.80;;;-142.21;100.00;112049.66;5051197;28;20527;-79
2022/04/15 07:23:00;;;;;;;14.40;12.60;;;18.90;63.60;;;-142.21;100.00;112049.66;5053910;28;20451;-79
2022/04/15 07:25:29;;;;;;;14.40;12.90;;;19.00;63.50;;;-142.21;100.00;112049.66;5055115;28;20445;-80
2022/04/15 07:27:56;;;;;;;17.30;13.77;;;19.20;63.30;;;-142.21;100.00;112049.66;5054295;28;20456;-80
2022/04/15 07:30:24;;;;;;;19.47;14.83;;;19.20;62.60;;;-142.21;100.00;112049.66;5051047;28;20495;-78
2022/04/15 07:32:53;;;;;;;18.63;14.60;;;19.20;61.60;;;-142.21;100.00;112049.66;5034778;28;20880;-80
2022/04/15 07:35:21;;;;;;;16.40;13.23;;;19.30;62.80;;;-142.21;100.00;112049.66;5034839;28;20945;-80
2022/04/15 07:37:48;;;;;;;15.27;13.33;;;19.30;61.90;;;-142.21;100.00;112049.66;5045170;28;20448;-80
2022/04/15 07:40:19;;;;;;;16.33;13.93;;;19.50;62.60;;;-142.21;100.00;112049.66;5074674;28;20507;-79
2022/04/15 07:42:47;;;;;;;17.40;13.93;;;19.60;61.60;;;-142.21;100.00;112049.66;5075133;28;20193;-77
2022/04/15 07:45:14;;;;;;;16.63;13.80;;;19.50;59.80;;;-142.21;100.00;112049.66;5071126;28;20440;-80
2022/04/15 07:47:42;;;;;;;16.50;13.37;;;19.50;60.10;;;-142.21;100.00;112049.66;5054934;28;20510;-79
2022/04/15 07:50:10;;;;;;;18.20;13.03;;;19.50;60.40;;;-142.21;100.00;112049.66;5053019;28;20803;-79
2022/04/15 07:52:38;;;;;;;17.57;14.00;;;19.60;60.70;;;-142.21;100.00;112049.66;5054987;28;20561;-79
2022/04/15 07:55:06;;;;;;;14.87;13.10;;;19.70;60.20;;;-142.21;100.00;112049.66;5054431;28;20292;-78
2022/04/15 07:57:34;;;;;;;15.70;12.50;;;19.80;60.00;;;-142.21;100.00;112049.66;5054496;28;20452;-76
2022/04/15 08:00:03;;;;;;;13.80;12.27;;;20.00;60.10;;;-142.21;100.00;112049.66;5053482;28;20492;-80
2022/04/15 08:02:31;;;;;;;15.57;12.43;;;20.10;59.50;;;-142.21;100.00;112049.66;5054418;28;20212;-77
2022/04/15 08:04:58;;;;;;;16.00;13.13;;;20.20;60.20;;;-142.21;100.00;112049.66;5054519;28;20267;-78
2022/04/15 08:07:25;;;;;;;16.93;13.50;;;20.20;59.00;;;-142.21;100.00;112049.66;5054015;28;20580;-79
2022/04/15 08:09:52;;;;;;;15.37;12.97;;;20.30;58.90;;;-142.21;100.00;112049.66;5054311;28;20276;-80
2022/04/15 08:12:20;;;;;;;16.43;14.23;;;20.40;59.30;;;-142.21;100.00;112049.66;5053605;28;20292;-80
2022/04/15 08:14:48;;;;;;;17.23;14.07;;;20.40;59.10;;;-142.21;100.00;112049.66;5054285;28;20448;-79
2022/04/15 08:17:17;;;;;;;16.67;13.80;;;20.50;59.50;;;-142.21;100.00;112049.66;5053507;28;20293;-77
2022/04/15 08:19:44;;;;;;;14.63;13.07;;;20.50;59.10;;;-142.21;100.00;112049.66;5054024;28;20538;-77
2022/04/15 08:22:11;;;;;;;18.00;13.30;;;20.70;59.10;;;-142.21;99.96;112049.66;5053644;28;20248;-79
2022/04/15 08:24:42;;;;;;;16.47;12.80;;;20.70;57.50;;;-142.21;99.10;112049.66;5054177;28;20231;-80
2022/04/15 08:27:10;;;;;;;14.93;13.07;;;20.80;57.90;;;-142.21;98.38;112049.66;5054025;28;20202;-80
2022/04/15 08:29:39;;;;;;;14.53;11.90;;;20.80;57.80;;;-142.21;98.57;112049.66;5053032;28;20210;-77
2022/04/15 08:32:08;;;;;;;16.00;12.73;;;21.00;57.70;;;-142.21;99.83;112049.66;5054038;28;20213;-79
2022/04/15 08:34:38;;;;;;;15.30;13.40;;;21.10;57.60;;;-142.21;96.76;112049.66;5053364;28;20654;-77
2022/04/15 08:37:06;;;;;;;15.03;13.00;;;21.20;56.90;;;-142.21;97.19;112049.66;5054099;28;20670;-80
2022/04/15 08:39:33;;;;;;;14.93;11.83;;;21.30;56.50;;;-142.21;96.92;112049.66;5069031;28;20278;-76
2022/04/15 08:42:01;;;;;;;16.67;12.67;;;21.50;55.80;;;-142.21;96.95;112049.66;5073816;28;20266;-79
2022/04/15 08:44:31;;;;;;;13.83;12.00;;;21.40;56.60;;;-142.21;96.60;112049.66;5055725;28;20234;-79
2022/04/15 08:47:01;;;;;;;14.23;12.40;;;21.60;55.90;;;-142.21;96.16;112049.66;5053662;28;20205;-76
2022/04/15 08:49:30;;;;;;;14.20;12.37;;;21.80;55.60;;;-142.21;95.39;112049.66;5052663;28;20214;-77
2022/04/15 08:51:59;;;;;;;14.17;12.67;;;22.10;55.40;;;-142.21;95.31;112049.66;5053573;28;20706;-78
2022/04/15 08:54:27;;;;;;;13.13;11.63;;;22.40;54.90;;;-142.21;96.23;112049.66;5053529;28;20301;-77
2022/04/15 08:56:54;;;;;;;11.93;10.63;;;22.60;54.80;;;-142.21;94.58;112049.66;5052822;28;20202;-80
2022/04/15 08:59:21;;;;;;;14.73;11.03;;;23.00;55.50;;;-142.21;94.51;112049.66;5053276;28;20221;-80
2022/04/15 09:01:48;;;;;;;13.27;10.63;;;23.80;54.40;;;-142.21;95.35;112049.66;5052675;28;20264;-79
2022/04/15 09:04:18;;;;;;;13.13;10.77;;;24.70;53.80;;;-142.21;94.88;112049.66;5053292;28;20205;-77
2022/04/15 09:06:45;;;;;;;11.50;10.30;;;25.60;51.60;;;-142.21;89.87;112049.66;5053194;28;20256;-80
2022/04/15 09:09:14;;;;;;;12.80;11.43;;;26.70;49.60;;;-142.21;91.52;112049.66;5052913;28;20746;-77
2022/04/15 09:11:44;;;;;;;13.67;10.60;;;27.50;47.30;;;-142.21;90.11;112049.66;5052146;28;20208;-75
2022/04/15 09:14:15;;;;;;;12.10;10.90;;;28.30;46.20;;;-142.21;89.16;112049.66;5053064;28;20198;-77
2022/04/15 09:16:45;;;;;;;11.00;9.87;;;28.90;44.40;;;-142.21;89.14;112049.66;5053272;28;20193;-79
2022/04/15 09:19:13;;;;;;;11.43;10.33;;;29.40;44.00;;;-142.21;87.39;112049.66;5052840;28;20186;-77
2022/04/15 09:21:44;;;;;;;11.27;10.13;;;29.70;41.90;;;-142.21;88.17;112049.66;5053192;28;20264;-77
2022/04/15 09:24:11;;;;;;;9.87;8.87;;;29.70;42.30;;;-142.21;89.67;112049.66;5053154;28;20196;-77
2022/04/15 09:26:44;;;;;;;13.37;10.17;;;30.00;42.30;;;-142.21;83.26;112049.66;5052980;28;20577;-76
2022/04/15 09:29:14;;;;;;;14.70;9.60;;;30.40;41.50;;;-142.21;83.94;112049.66;5052105;28;20821;-77
2022/04/15 09:31:44;;;;;;;12.37;11.17;;;30.20;40.60;;;-142.21;80.42;112049.66;5052932;28;20733;-78
2022/04/15 09:34:12;;;;;;;12.17;10.60;;;30.10;40.40;;;-142.21;84.17;112049.66;5052599;28;20708;-78
2022/04/15 09:36:43;;;;;;;11.60;10.40;;;29.70;40.80;;;-142.21;90.24;112049.66;5037970;28;20256;-77
2022/04/15 09:39:14;;;;;;;11.23;9.77;;;29.30;41.50;;;-142.21;89.01;112049.66;5032359;28;20284;-76
2022/04/15 09:41:50;;;;;;;13.43;9.17;;;28.80;41.50;;;-142.21;87.79;112049.66;5032433;28;20210;-81
2022/04/15 09:44:18;;;;;;;10.13;9.13;;;28.30;42.10;;;-142.21;84.76;112049.66;5032074;28;20202;-75
2022/04/15 09:46:47;;;;;;;11.30;10.03;;;27.90;42.30;;;-142.21;85.99;112049.66;5032432;28;20242;-76
2022/04/15 09:49:15;;;;;;;11.67;9.90;;;27.60;43.00;;;-142.21;78.50;112049.66;5054831;28;20205;-74
2022/04/15 09:51:45;;;;;;;12.63;11.33;;;27.30;42.90;;;-142.21;82.57;112049.66;5051505;28;20199;-74
2022/04/15 09:54:22;;;;;;;10.90;9.83;;;26.90;41.70;;;-142.21;82.30;112049.66;5051570;28;20194;-74
2022/04/15 09:56:52;;;;;;;9.00;8.10;;;26.70;43.90;;;-142.21;88.84;112049.66;5061735;28;20630;-74